createdAt,value
2018-05-06T00:00:27.474Z,80.00
2018-05-06T00:02:55.827Z,80.20
2018-05-06T00:05:23.415Z,80.20
2018-05-06T00:07:51.786Z,80.40
2018-05-06T00:10:20.203Z,80.60
2018-05-06T00:12:47.786Z,80.50
2018-05-06T00:15:15.394Z,80.30
2018-05-06T00:17:43.737Z,80.50
2018-05-06T00:20:11.304Z,80.50
2018-05-06T00:22:38.927Z,80.40
2018-05-06T00:25:06.480Z,79.80
2018-05-06T00:27:34.107Z,80.40
2018-05-06T00:30:02.434Z,80.80
2018-05-06T00:32:30.042Z,80.80
2018-05-06T00:34:58.353Z,81.10
2018-05-06T00:37:25.906Z,81.10
2018-05-06T00:39:53.461Z,81.50
2018-05-06T00:42:21.054Z,82.00
2018-05-06T00:44:48.611Z,82.50
2018-05-06T00:47:16.206Z,82.40
2018-05-06T00:49:43.768Z,82.50
2018-05-06T00:52:11.367Z,82.70
2018-05-06T00:54:44.707Z,82.80
2018-05-06T00:57:12.333Z,83.10
2018-05-06T00:59:39.928Z,83.40
2018-05-06T01:02:07.533Z,83.80
2018-05-06T01:04:35.844Z,83.60
2018-05-06T01:07:04.176Z,83.70
2018-05-06T01:09:32.543Z,83.70
2018-05-06T01:12:00.117Z,83.70
2018-05-06T01:14:28.498Z,84.40
2018-05-06T01:16:56.087Z,84.30
2018-05-06T01:19:23.644Z,84.60
2018-05-06T01:21:51.232Z,84.50
2018-05-06T01:24:18.819Z,84.70
2018-05-06T01:26:46.442Z,84.60
2018-05-06T01:29:14.050Z,85.30
2018-05-06T01:31:42.377Z,85.00
2018-05-06T01:34:09.942Z,85.00
2018-05-06T01:36:37.899Z,84.80
2018-05-06T01:39:05.480Z,84.80
2018-05-06T01:41:33.051Z,85.20
2018-05-06T01:44:00.612Z,85.00
2018-05-06T01:46:28.255Z,85.10
2018-05-06T01:48:55.840Z,85.00
2018-05-06T01:51:23.427Z,84.60
2018-05-06T01:53:51.724Z,84.70
2018-05-06T01:56:19.289Z,84.70
2018-05-06T01:58:46.890Z,84.40
2018-05-06T02:01:14.501Z,84.50
2018-05-06T02:03:42.097Z,84.40
2018-05-06T02:06:09.662Z,84.70
2018-05-06T02:08:37.267Z,84.60
2018-05-06T02:11:04.873Z,84.50
2018-05-06T02:13:32.443Z,84.30
2018-05-06T02:16:00.037Z,84.70
2018-05-06T02:18:27.601Z,84.70
2018-05-06T02:20:55.952Z,85.00
2018-05-06T02:23:24.421Z,85.00
2018-05-06T02:25:52.032Z,85.00
2018-05-06T02:28:19.644Z,85.30
2018-05-06T02:30:47.208Z,85.70
2018-05-06T02:33:14.783Z,86.00
2018-05-06T02:35:42.391Z,85.90
2018-05-06T02:38:09.980Z,86.60
2018-05-06T02:40:37.614Z,86.00
2018-05-06T02:43:06.407Z,86.30
2018-05-06T02:45:33.959Z,86.30
2018-05-06T02:48:01.531Z,86.60
2018-05-06T02:50:29.087Z,86.60
2018-05-06T02:52:56.731Z,86.60
2018-05-06T02:55:24.285Z,86.90
2018-05-06T02:57:52.665Z,87.00
2018-05-06T03:00:20.268Z,87.00
2018-05-06T03:02:47.855Z,87.30
2018-05-06T03:05:15.484Z,87.50
2018-05-06T03:07:43.118Z,88.60
2018-05-06T03:10:10.676Z,87.80
2018-05-06T03:12:38.263Z,88.10
2018-05-06T03:15:05.828Z,88.20
2018-05-06T03:17:33.451Z,88.30
2018-05-06T03:20:01.035Z,88.20
2018-05-06T03:22:28.669Z,87.90
2018-05-06T03:24:57.015Z,88.20
2018-05-06T03:27:24.608Z,88.20
2018-05-06T03:29:53.011Z,87.80
2018-05-06T03:32:20.739Z,87.80
2018-05-06T03:34:48.565Z,87.70
2018-05-06T03:37:16.148Z,88.00
2018-05-06T03:39:43.735Z,88.00
2018-05-06T03:42:12.101Z,87.90
2018-05-06T03:44:39.653Z,87.90
2018-05-06T03:47:07.259Z,87.60
2018-05-06T03:49:34.877Z,86.60
2018-05-06T03:52:02.441Z,87.50
2018-05-06T03:54:30.012Z,87.30
2018-05-06T03:57:09.471Z,87.60
2018-05-06T03:59:48.810Z,87.50
2018-05-06T04:02:32.064Z,87.60
2018-05-06T04:05:00.004Z,87.90
2018-05-06T04:07:27.590Z,87.90
2018-05-06T04:09:56.049Z,87.90
2018-05-06T04:12:23.633Z,87.90
2018-05-06T04:14:51.216Z,87.70
2018-05-06T04:17:18.796Z,87.60
2018-05-06T04:19:47.132Z,87.50
2018-05-06T04:22:14.715Z,87.50
2018-05-06T04:24:42.295Z,87.50
2018-05-06T04:27:10.663Z,87.10
2018-05-06T04:29:38.239Z,87.10
2018-05-06T04:32:06.628Z,86.70
2018-05-06T04:34:34.945Z,86.90
2018-05-06T04:37:02.551Z,86.80
2018-05-06T04:39:30.906Z,86.90
2018-05-06T04:41:58.493Z,86.90
2018-05-06T04:44:26.885Z,87.20
2018-05-06T04:46:55.252Z,86.90
2018-05-06T04:49:23.557Z,87.20
2018-05-06T04:51:51.146Z,87.20
2018-05-06T04:54:18.677Z,87.10
2018-05-06T04:56:46.269Z,87.30
2018-05-06T04:59:13.859Z,86.30
2018-05-06T05:01:41.412Z,87.10
2018-05-06T05:04:08.986Z,86.30
2018-05-06T05:06:37.328Z,82.70
2018-05-06T05:09:05.826Z,82.70
2018-05-06T05:11:33.424Z,79.20
2018-05-06T05:14:01.007Z,78.10
2018-05-06T05:16:28.584Z,76.70
2018-05-06T05:18:56.172Z,75.50
2018-05-06T05:21:23.742Z,73.50
2018-05-06T05:23:51.302Z,72.70
2018-05-06T05:26:18.900Z,71.20
2018-05-06T05:28:46.501Z,68.90
2018-05-06T05:31:14.110Z,68.70
2018-05-06T05:33:41.801Z,68.80
2018-05-06T05:36:09.419Z,68.00
2018-05-06T05:38:37.745Z,66.00
2018-05-06T05:41:05.356Z,66.00
2018-05-06T05:43:33.678Z,64.40
2018-05-06T05:46:01.262Z,64.30
2018-05-06T05:48:29.441Z,65.40
2018-05-06T05:50:57.072Z,66.30
2018-05-06T05:53:24.708Z,66.40
2018-05-06T05:55:52.295Z,66.70
2018-05-06T05:58:19.901Z,67.80
2018-05-06T06:00:47.502Z,69.20
2018-05-06T06:03:15.081Z,69.80
2018-05-06T06:05:42.638Z,71.10
2018-05-06T06:08:10.222Z,72.80
2018-05-06T06:10:37.844Z,73.40
2018-05-06T06:13:05.451Z,72.20
2018-05-06T06:15:33.013Z,71.60
2018-05-06T06:18:00.606Z,69.60
2018-05-06T06:20:28.214Z,69.00
2018-05-06T06:22:55.810Z,66.50
2018-05-06T06:25:24.146Z,65.20
2018-05-06T06:27:51.742Z,65.20
2018-05-06T06:30:20.077Z,63.50
2018-05-06T06:32:47.699Z,63.50
2018-05-06T06:35:16.075Z,66.10
2018-05-06T06:37:44.433Z,67.10
2018-05-06T06:40:12.775Z,68.90
2018-05-06T06:42:40.361Z,68.90
2018-05-06T06:45:07.960Z,70.90
2018-05-06T06:47:36.303Z,74.30
2018-05-06T06:50:04.708Z,74.70
2018-05-06T06:52:33.063Z,76.90
2018-05-06T06:55:00.636Z,76.80
2018-05-06T06:57:29.038Z,77.80
2018-05-06T06:59:56.612Z,77.80
2018-05-06T07:02:24.296Z,78.90
2018-05-06T07:04:52.679Z,80.00
2018-05-06T07:07:20.279Z,79.20
2018-05-06T07:09:48.655Z,78.80
2018-05-06T07:12:17.055Z,78.90
2018-05-06T07:14:44.643Z,78.90
2018-05-06T07:17:12.213Z,78.90
2018-05-06T07:19:39.808Z,80.10
2018-05-06T07:22:07.413Z,80.00
2018-05-06T07:24:35.010Z,80.30
2018-05-06T07:27:02.580Z,78.70
2018-05-06T07:29:30.183Z,80.10
2018-05-06T07:31:57.859Z,80.60
2018-05-06T07:34:25.447Z,79.40
2018-05-06T07:36:53.471Z,79.60
2018-05-06T07:39:21.793Z,77.50
2018-05-06T07:41:49.389Z,77.50
2018-05-06T07:44:17.716Z,78.40
2018-05-06T07:46:45.347Z,79.00
2018-05-06T07:49:12.935Z,79.80
2018-05-06T07:51:40.526Z,79.20
2018-05-06T07:54:09.104Z,78.60
2018-05-06T07:56:36.707Z,79.50
2018-05-06T07:59:05.043Z,79.70
2018-05-06T08:01:32.681Z,79.70
2018-05-06T08:04:00.331Z,79.20
2018-05-06T08:06:27.951Z,78.00
2018-05-06T08:08:55.597Z,78.40
2018-05-06T08:11:23.257Z,78.40
2018-05-06T08:13:50.837Z,76.90
2018-05-06T08:16:18.512Z,78.50
2018-05-06T08:18:46.208Z,78.40
2018-05-06T08:21:13.927Z,77.30
2018-05-06T08:23:41.501Z,77.70
2018-05-06T08:26:09.894Z,77.80
2018-05-06T08:28:37.515Z,77.80
2018-05-06T08:31:05.132Z,77.50
2018-05-06T08:33:32.762Z,76.80
2018-05-06T08:36:01.308Z,76.80
2018-05-06T08:38:28.889Z,76.70
2018-05-06T08:40:56.504Z,75.80
2018-05-06T08:43:24.138Z,76.70
2018-05-06T08:45:51.771Z,77.80
2018-05-06T08:48:19.631Z,77.40
2018-05-06T08:50:47.204Z,76.30
2018-05-06T08:53:15.564Z,75.50
2018-05-06T08:55:43.138Z,75.50
2018-05-06T08:58:10.793Z,75.80
2018-05-06T09:00:39.132Z,75.10
2018-05-06T09:03:06.806Z,75.10
2018-05-06T09:05:34.514Z,75.30
2018-05-06T09:08:02.901Z,75.50
2018-05-06T09:10:31.249Z,74.80
2018-05-06T09:12:58.846Z,74.80
2018-05-06T09:15:26.434Z,74.40
2018-05-06T09:17:54.062Z,75.50
2018-05-06T09:20:23.240Z,74.40
2018-05-06T09:22:51.612Z,75.00
2018-05-06T09:25:19.238Z,74.90
2018-05-06T09:27:46.861Z,74.20
2018-05-06T09:30:14.473Z,74.60
2018-05-06T09:32:42.092Z,73.20
2018-05-06T09:35:09.648Z,73.90
2018-05-06T09:37:37.273Z,75.00
2018-05-06T09:40:05.714Z,75.10
2018-05-06T09:42:33.324Z,75.00
2018-05-06T09:45:01.720Z,72.20
2018-05-06T09:47:29.404Z,72.20
2018-05-06T09:49:57.748Z,72.60
2018-05-06T09:52:25.374Z,72.60
2018-05-06T09:54:52.937Z,71.10
2018-05-06T09:57:21.325Z,70.30
2018-05-06T09:59:48.920Z,70.30
2018-05-06T10:02:17.310Z,71.50
2018-05-06T10:04:44.862Z,71.30
2018-05-06T10:07:13.189Z,71.50
2018-05-06T10:09:41.564Z,71.90
2018-05-06T10:12:09.199Z,72.30
2018-05-06T10:14:36.808Z,72.10
2018-05-06T10:17:04.401Z,71.60
2018-05-06T10:19:33.260Z,70.40
2018-05-06T10:22:02.362Z,70.80
2018-05-06T10:24:29.962Z,70.90
2018-05-06T10:26:57.580Z,70.40
2018-05-06T10:29:25.173Z,69.80
2018-05-06T10:31:53.505Z,70.90
2018-05-06T10:34:21.127Z,70.80
2018-05-06T10:36:48.694Z,69.20
2018-05-06T10:39:16.306Z,70.00
2018-05-06T10:41:43.885Z,70.70
2018-05-06T10:44:12.290Z,69.60
2018-05-06T10:46:40.642Z,68.30
2018-05-06T10:49:09.038Z,68.60
2018-05-06T10:51:36.724Z,68.60
2018-05-06T10:54:04.414Z,67.00
2018-05-06T10:56:32.124Z,68.50
2018-05-06T10:58:59.709Z,69.80
2018-05-06T11:01:28.039Z,67.90
2018-05-06T11:03:55.662Z,67.90
2018-05-06T11:06:23.190Z,67.90
2018-05-06T11:08:50.752Z,69.50
2018-05-06T11:11:18.373Z,67.70
2018-05-06T11:13:45.957Z,68.70
2018-05-06T11:16:14.349Z,67.60
2018-05-06T11:18:41.944Z,67.60
2018-05-06T11:21:09.675Z,68.40
2018-05-06T11:23:37.299Z,68.90
2018-05-06T11:26:04.913Z,66.40
2018-05-06T11:28:32.608Z,67.80
2018-05-06T11:31:00.210Z,67.50
2018-05-06T11:33:27.853Z,65.80
2018-05-06T11:35:55.378Z,66.00
2018-05-06T11:38:23.998Z,65.60
2018-05-06T11:40:52.347Z,65.70
2018-05-06T11:43:19.944Z,65.70
2018-05-06T11:45:48.313Z,67.10
2018-05-06T11:48:16.708Z,67.80
2018-05-06T11:50:45.040Z,67.10
2018-05-06T11:53:12.633Z,67.10
2018-05-06T11:55:40.225Z,68.10
2018-05-06T11:58:07.816Z,68.50
2018-05-06T12:00:36.155Z,68.70
2018-05-06T12:03:03.745Z,68.70
2018-05-06T12:05:31.397Z,69.70
2018-05-06T12:07:58.984Z,68.10
2018-05-06T12:10:26.797Z,68.60
2018-05-06T12:12:54.383Z,69.00
2018-05-06T12:15:22.092Z,68.30
2018-05-06T12:17:49.660Z,67.10
2018-05-06T12:20:17.209Z,66.80
2018-05-06T12:22:44.803Z,67.00
2018-05-06T12:25:12.347Z,67.80
2018-05-06T12:27:40.731Z,66.50
2018-05-06T12:30:09.068Z,67.00
2018-05-06T12:32:37.439Z,66.20
2018-05-06T12:35:05.001Z,66.20
2018-05-06T12:37:32.612Z,66.60
2018-05-06T12:40:00.940Z,67.00
2018-05-06T12:42:29.380Z,67.80
2018-05-06T12:44:56.967Z,67.80
2018-05-06T12:47:24.529Z,66.00
2018-05-06T12:49:52.111Z,66.20
2018-05-06T12:52:19.704Z,66.00
2018-05-06T12:54:48.088Z,67.00
2018-05-06T12:57:15.688Z,67.90
2018-05-06T12:59:43.257Z,67.40
2018-05-06T13:02:10.842Z,65.90
2018-05-06T13:04:38.423Z,66.40
2018-05-06T13:07:06.811Z,67.80
2018-05-06T13:09:34.414Z,67.80
2018-05-06T13:12:02.255Z,66.50
2018-05-06T13:14:30.609Z,67.30
2018-05-06T13:16:58.211Z,67.40
2018-05-06T13:19:25.805Z,67.20
2018-05-06T13:21:53.444Z,66.30
2018-05-06T13:24:22.517Z,66.60
2018-05-06T13:26:50.094Z,66.50
2018-05-06T13:29:17.683Z,67.80
2018-05-06T13:31:45.313Z,68.10
2018-05-06T13:34:13.049Z,66.70
2018-05-06T13:36:40.660Z,65.80
2018-05-06T13:39:08.212Z,66.40
2018-05-06T13:41:35.794Z,64.80
2018-05-06T13:44:03.399Z,64.40
2018-05-06T13:46:31.569Z,64.80
2018-05-06T13:48:59.148Z,65.40
2018-05-06T13:51:27.829Z,65.80
2018-05-06T13:53:55.435Z,65.00
2018-05-06T13:56:23.199Z,65.10
2018-05-06T13:58:51.601Z,65.10
2018-05-06T14:01:20.064Z,65.10
2018-05-06T14:03:48.401Z,64.60
2018-05-06T14:06:16.063Z,64.60
2018-05-06T14:08:43.628Z,64.50
2018-05-06T14:11:11.218Z,65.20
2018-05-06T14:13:39.555Z,66.70
2018-05-06T14:16:07.141Z,66.60
2018-05-06T14:18:34.741Z,65.00
2018-05-06T14:21:03.098Z,65.10
2018-05-06T14:23:31.522Z,65.90
2018-05-06T14:25:59.124Z,65.80
2018-05-06T14:28:26.775Z,66.70
2018-05-06T14:30:54.410Z,66.20
2018-05-06T14:33:22.016Z,66.80
2018-05-06T14:35:49.731Z,67.30
2018-05-06T14:38:17.427Z,67.60
2018-05-06T14:40:45.772Z,67.60
2018-05-06T14:43:13.402Z,67.60
2018-05-06T14:45:40.991Z,67.00
2018-05-06T14:48:14.430Z,67.00
2018-05-06T14:50:41.980Z,68.00
2018-05-06T14:53:09.592Z,67.90
2018-05-06T14:55:37.974Z,67.10
2018-05-06T14:58:05.589Z,67.10
2018-05-06T15:00:34.162Z,67.50
2018-05-06T15:03:01.744Z,68.60
2018-05-06T15:05:29.336Z,68.30
2018-05-06T15:07:56.955Z,68.70
2018-05-06T15:10:24.576Z,69.50
2018-05-06T15:12:52.936Z,68.90
2018-05-06T15:15:20.527Z,68.90
2018-05-06T15:17:48.149Z,69.30
2018-05-06T15:20:16.508Z,69.60
2018-05-06T15:22:44.130Z,69.60
2018-05-06T15:25:11.737Z,70.30
2018-05-06T15:27:40.090Z,70.50
2018-05-06T15:30:07.819Z,69.70
2018-05-06T15:32:36.838Z,69.30
2018-05-06T15:35:05.292Z,70.30
2018-05-06T15:37:33.019Z,70.30
2018-05-06T15:40:00.611Z,68.70
2018-05-06T15:42:28.176Z,69.20
2018-05-06T15:44:55.801Z,68.70
2018-05-06T15:47:24.180Z,70.70
2018-05-06T15:49:52.657Z,68.90
2018-05-06T15:52:20.278Z,68.90
2018-05-06T15:54:47.868Z,69.20
2018-05-06T15:57:15.487Z,70.00
2018-05-06T15:59:43.129Z,70.10
2018-05-06T16:05:20.156Z,68.60
2018-05-06T16:07:47.747Z,70.20
2018-05-06T16:10:15.343Z,70.70
2018-05-06T16:12:43.692Z,69.20
2018-05-06T16:15:11.298Z,69.20
2018-05-06T16:17:38.929Z,69.90
2018-05-06T16:20:07.876Z,69.40
2018-05-06T16:22:36.835Z,69.40
2018-05-06T16:25:04.833Z,70.00
2018-05-06T16:27:33.093Z,69.90
2018-05-06T16:30:00.719Z,70.70
2018-05-06T16:32:28.301Z,71.40
2018-05-06T16:34:56.632Z,70.90
2018-05-06T16:37:24.213Z,70.90
2018-05-06T16:39:51.797Z,71.50
2018-05-06T16:42:20.144Z,71.60
2018-05-06T16:44:48.595Z,71.30
2018-05-06T16:47:16.221Z,71.30
2018-05-06T16:49:44.562Z,72.20
2018-05-06T16:52:12.150Z,72.20
2018-05-06T16:54:40.549Z,72.20
2018-05-06T16:57:08.165Z,72.20
2018-05-06T16:59:35.737Z,72.10
2018-05-06T17:02:03.403Z,72.00
2018-05-06T17:04:30.990Z,72.60
2018-05-06T17:06:58.693Z,72.90
2018-05-06T17:09:27.015Z,73.60
2018-05-06T17:11:55.383Z,73.50
2018-05-06T17:14:22.958Z,73.60
2018-05-06T17:16:51.361Z,70.30
2018-05-06T17:19:19.076Z,70.20
2018-05-06T17:21:46.655Z,67.40
2018-05-06T17:24:14.274Z,64.50
2018-05-06T17:26:41.941Z,62.60
2018-05-06T17:29:09.540Z,60.00
2018-05-06T17:31:37.231Z,59.20
2018-05-06T17:34:04.937Z,58.30
2018-05-06T17:36:32.612Z,57.60
2018-05-06T17:39:00.258Z,57.30
2018-05-06T17:41:27.966Z,56.60
2018-05-06T17:43:57.258Z,55.50
2018-05-06T17:46:25.635Z,55.50
2018-05-06T17:48:53.986Z,55.10
2018-05-06T17:51:21.647Z,55.10
2018-05-06T17:53:49.241Z,55.90
2018-05-06T17:56:17.043Z,57.40
2018-05-06T17:58:44.673Z,59.40
2018-05-06T18:01:12.270Z,60.60
2018-05-06T18:03:39.879Z,62.40
2018-05-06T18:06:07.461Z,64.20
2018-05-06T18:08:35.097Z,66.10
2018-05-06T18:11:02.975Z,67.20
2018-05-06T18:13:30.669Z,67.90
2018-05-06T18:15:58.302Z,69.30
2018-05-06T18:18:26.655Z,71.40
2018-05-06T18:20:54.226Z,71.40
2018-05-06T18:23:21.807Z,72.60
2018-05-06T18:25:50.363Z,73.30
2018-05-06T18:28:18.003Z,74.40
2018-05-06T18:30:46.418Z,75.80
2018-05-06T18:33:14.876Z,76.40
2018-05-06T18:35:42.468Z,76.40
2018-05-06T18:38:10.094Z,77.10
2018-05-06T18:40:37.668Z,77.60
2018-05-06T18:43:05.444Z,78.10
2018-05-06T18:45:33.858Z,78.90
2018-05-06T18:48:01.494Z,78.90
2018-05-06T18:50:29.862Z,79.50
2018-05-06T18:52:57.506Z,79.50
2018-05-06T18:55:25.085Z,79.80
2018-05-06T18:57:52.672Z,80.30
2018-05-06T19:00:20.356Z,80.80
2018-05-06T19:02:48.053Z,81.00
2018-05-06T19:05:15.540Z,81.50
2018-05-06T19:07:43.940Z,82.00
2018-05-06T19:10:11.597Z,82.00
2018-05-06T19:12:39.350Z,82.50
2018-05-06T19:15:06.927Z,82.90
2018-05-06T19:17:34.555Z,83.60
2018-05-06T19:20:02.946Z,84.40
2018-05-06T19:22:31.393Z,84.90
2018-05-06T19:24:59.985Z,84.90
2018-05-06T19:27:27.623Z,84.80
2018-05-06T19:29:55.241Z,85.40
2018-05-06T19:32:23.624Z,86.00
2018-05-06T19:34:52.124Z,86.10
2018-05-06T19:37:20.294Z,86.40
2018-05-06T19:39:47.988Z,86.70
2018-05-06T19:42:15.633Z,87.90
2018-05-06T19:44:43.214Z,87.40
2018-05-06T19:47:10.844Z,87.40
2018-05-06T19:49:38.475Z,87.80
2018-05-06T19:52:06.107Z,87.80
2018-05-06T19:54:33.773Z,87.90
2018-05-06T19:57:01.356Z,88.20
2018-05-06T19:59:28.907Z,88.60
2018-05-06T20:01:56.999Z,88.60
2018-05-06T20:04:24.636Z,89.00
2018-05-06T20:06:53.124Z,89.20
2018-05-06T20:09:20.702Z,90.10
2018-05-06T20:11:48.304Z,89.60
2018-05-06T20:14:15.897Z,90.00
2018-05-06T20:16:44.325Z,90.00
2018-05-06T20:19:11.969Z,90.00
2018-05-06T20:21:40.466Z,90.20
2018-05-06T20:24:08.816Z,90.30
2018-05-06T20:26:37.174Z,90.40
2018-05-06T20:29:04.765Z,90.40
2018-05-06T20:31:33.131Z,90.80
2018-05-06T20:34:01.530Z,90.80
2018-05-06T20:36:29.856Z,90.90
2018-05-06T20:38:57.492Z,90.90
2018-05-06T20:41:25.126Z,90.90
2018-05-06T20:43:53.567Z,91.10
2018-05-06T20:46:21.121Z,91.10
2018-05-06T20:48:48.758Z,91.20
2018-05-06T20:51:16.416Z,91.20
2018-05-06T20:53:44.060Z,91.40
2018-05-06T20:56:11.645Z,91.60
2018-05-06T20:58:39.286Z,91.50
2018-05-06T21:01:06.884Z,91.50
2018-05-06T21:03:34.510Z,91.60
2018-05-06T21:06:02.142Z,91.80
2018-05-06T21:08:30.494Z,92.20
2018-05-06T21:10:58.082Z,92.10
2018-05-06T21:13:25.712Z,92.20
2018-05-06T21:15:53.312Z,92.30
2018-05-06T21:18:20.910Z,92.50
2018-05-06T21:20:48.479Z,92.50
2018-05-06T21:23:16.089Z,92.70
2018-05-06T21:25:43.660Z,92.90
2018-05-06T21:28:11.354Z,93.00
2018-05-06T21:30:38.893Z,93.00
2018-05-06T21:33:06.494Z,93.00
2018-05-06T21:35:34.061Z,93.30
2018-05-06T21:38:02.736Z,93.50
2018-05-06T21:40:30.350Z,93.60
2018-05-06T21:42:57.945Z,93.70
2018-05-06T21:45:25.621Z,93.80
2018-05-06T21:47:53.153Z,93.90
2018-05-06T21:50:20.779Z,93.90
2018-05-06T21:52:48.371Z,94.10
2018-05-06T21:55:15.922Z,94.20
2018-05-06T21:57:43.520Z,94.20
2018-05-06T22:00:11.225Z,94.30
2018-05-06T22:02:39.607Z,94.50
2018-05-06T22:05:08.965Z,94.60
2018-05-06T22:07:36.535Z,94.50
2018-05-06T22:10:10.925Z,94.50
2018-05-06T22:12:38.835Z,94.60
2018-05-06T22:15:06.481Z,94.80
2018-05-06T22:17:34.051Z,94.90
2018-05-06T22:20:01.650Z,95.10
2018-05-06T22:22:29.275Z,95.20
2018-05-06T22:24:56.833Z,95.40
2018-05-06T22:27:24.416Z,95.50
2018-05-06T22:29:52.778Z,96.00
2018-05-06T22:32:20.415Z,96.00
2018-05-06T22:34:47.975Z,96.30
2018-05-06T22:37:15.575Z,96.60
2018-05-06T22:39:43.931Z,97.40
2018-05-06T22:42:11.535Z,97.00
2018-05-06T22:44:39.124Z,97.00
2018-05-06T22:47:06.727Z,97.20
2018-05-06T22:49:35.079Z,97.50
2018-05-06T22:52:02.720Z,97.50
2018-05-06T22:54:30.318Z,97.80
2018-05-06T22:56:58.443Z,97.60
2018-05-06T22:59:26.186Z,97.70
2018-05-06T23:01:53.744Z,97.70
2018-05-06T23:04:21.344Z,97.90
2018-05-06T23:06:48.939Z,98.00
2018-05-06T23:09:17.237Z,98.20
2018-05-06T23:11:45.623Z,98.60
2018-05-06T23:14:13.212Z,98.60
2018-05-06T23:16:40.791Z,98.80
2018-05-06T23:19:08.460Z,98.90
2018-05-06T23:21:36.088Z,99.10
2018-05-06T23:24:03.685Z,99.20
2018-05-06T23:26:31.291Z,99.30
2018-05-06T23:28:58.895Z,99.40
2018-05-06T23:31:26.511Z,99.40
2018-05-06T23:33:54.101Z,99.60
2018-05-06T23:36:21.733Z,99.70
2018-05-06T23:38:49.356Z,99.80
2018-05-06T23:41:16.954Z,99.90
2018-05-06T23:43:44.587Z,99.90
2018-05-06T23:46:12.123Z,99.90
2018-05-06T23:48:41.305Z,99.90
2018-05-06T23:51:08.883Z,99.90
2018-05-06T23:53:36.622Z,99.90
2018-05-06T23:56:04.244Z,99.90
2018-05-06T23:58:32.626Z,99.90
